Time;durP1;ratioP1;P1;durP2;ratioP2;P2;SDS_P1;SDS_P2;PMS_P1;PMS_P2;Temp;Humidity;BMP_temperature;BMP_pressure;BME280_temperature;BME280_humidity;BME280_pressure;Samples;Min_cycle;Max_cycle;Signal;HPM_P1;HPM_P2
2022/06/12 00:03:49;;;;;;;1.80;1.80;;;;;;;;;;10463885;28;20721;-70
2022/06/12 00:08:50;;;;;;;1.75;1.75;;;;;;;;;;10484736;28;20267;-70
2022/06/12 00:13:56;;;;;;;1.75;1.65;;;;;;;;;;10493342;28;20190;-70
2022/06/12 00:18:57;;;;;;;1.80;1.80;;;;;;;;;;10464839;28;20205;-70
2022/06/12 00:24:00;;;;;;;3.60;1.60;;;;;;;;;;10476448;28;20218;-70
2022/06/12 00:29:04;;;;;;;1.33;1.33;;;;;;;;;;10478439;28;20224;-70
2022/06/12 00:34:06;;;;;;;1.98;1.98;;;;;;;;;;10442927;28;20205;-70
2022/06/12 00:39:08;;;;;;;1.60;1.60;;;;;;;;;;10477154;28;20189;-70
2022/06/12 00:44:12;;;;;;;2.53;1.63;;;;;;;;;;10451571;28;20275;-70
2022/06/12 00:49:16;;;;;;;1.48;1.38;;;;;;;;;;10433416;28;20226;-70
2022/06/12 00:54:17;;;;;;;2.08;1.38;;;;;;;;;;10427893;28;20556;-70
2022/06/12 00:59:24;;;;;;;2.10;2.10;;;;;;;;;;10430755;28;20231;-70
2022/06/12 01:09:49;;;;;;;2.13;2.13;;;;;;;;;;10426227;28;20218;-70
2022/06/12 01:14:52;;;;;;;2.78;2.67;;;;;;;;;;10436398;28;20167;-70
2022/06/12 01:19:55;;;;;;;2.78;2.67;;;;;;;;;;10435624;28;20187;-69
2022/06/12 01:25:13;;;;;;;2.85;2.53;;;;;;;;;;10430690;28;20191;-70
2022/06/12 01:30:18;;;;;;;2.53;2.53;;;;;;;;;;10437605;28;20242;-70
2022/06/12 01:35:28;;;;;;;2.58;2.47;;;;;;;;;;10436814;28;20634;-70
2022/06/12 01:40:35;;;;;;;2.50;2.40;;;;;;;;;;10426977;28;20669;-70
2022/06/12 01:45:43;;;;;;;2.20;2.10;;;;;;;;;;10442785;28;20229;-69
2022/06/12 01:50:52;;;;;;;3.65;2.25;;;;;;;;;;10459521;28;20214;-71
2022/06/12 01:55:56;;;;;;;2.28;2.28;;;;;;;;;;10482882;28;20207;-70
2022/06/12 02:01:06;;;;;;;2.00;1.90;;;;;;;;;;10480291;28;20581;-70
2022/06/12 02:06:14;;;;;;;2.20;2.00;;;;;;;;;;10476146;28;20652;-70
2022/06/12 02:16:39;;;;;;;2.15;2.05;;;;;;;;;;10450314;28;20186;-70
2022/06/12 02:21:49;;;;;;;3.13;2.15;;;;;;;;;;10476748;28;20190;-70
2022/06/12 02:27:00;;;;;;;2.85;2.75;;;;;;;;;;10453190;28;20222;-70
2022/06/12 02:32:21;;;;;;;2.20;2.20;;;;;;;;;;10477572;28;20272;-70
2022/06/12 02:37:34;;;;;;;2.35;2.22;;;;;;;;;;10476254;28;20181;-69
2022/06/12 02:42:39;;;;;;;2.15;2.15;;;;;;;;;;10474232;28;20663;-70
2022/06/12 02:47:41;;;;;;;2.25;2.22;;;;;;;;;;10475579;28;20225;-70
2022/06/12 02:52:45;;;;;;;2.20;2.10;;;;;;;;;;10453745;28;23456;-70
2022/06/12 02:58:06;;;;;;;2.42;2.42;;;;;;;;;;10473411;28;20209;-69
2022/06/12 03:03:10;;;;;;;2.63;2.42;;;;;;;;;;10503624;28;20210;-68
2022/06/12 03:08:16;;;;;;;2.17;2.03;;;;;;;;;;10497609;28;20220;-68
2022/06/12 03:13:18;;;;;;;2.83;2.67;;;;;;;;;;10463637;28;20299;-69
2022/06/12 03:18:25;;;;;;;2.80;2.67;;;;;;;;;;10460727;28;20178;-69
2022/06/12 03:23:32;;;;;;;2.97;2.80;;;;;;;;;;10466896;28;20189;-69
2022/06/12 03:28:36;;;;;;;3.60;3.40;;;;;;;;;;10480138;28;20706;-69
2022/06/12 03:33:37;;;;;;;2.80;2.70;;;;;;;;;;10490493;28;20795;-69
2022/06/12 03:38:54;;;;;;;3.22;3.03;;;;;;;;;;10489679;28;20187;-69
2022/06/12 03:43:55;;;;;;;2.70;2.42;;;;;;;;;;10456457;28;20661;-68
2022/06/12 03:48:56;;;;;;;2.10;2.08;;;;;;;;;;10461593;28;20225;-69
2022/06/12 03:54:09;;;;;;;2.45;2.35;;;;;;;;;;10493614;28;20185;-68
2022/06/12 03:59:29;;;;;;;2.58;2.38;;;;;;;;;;10475359;28;20198;-69
2022/06/12 04:04:32;;;;;;;2.13;2.03;;;;;;;;;;10478144;28;20214;-69
2022/06/12 04:09:37;;;;;;;3.17;2.40;;;;;;;;;;10453301;28;20731;-68
2022/06/12 04:14:41;;;;;;;3.30;2.45;;;;;;;;;;10486116;28;20192;-69
2022/06/12 04:20:00;;;;;;;2.70;1.85;;;;;;;;;;10453333;28;20191;-69
2022/06/12 04:25:19;;;;;;;2.85;2.40;;;;;;;;;;10454602;28;20711;-69
2022/06/12 04:30:32;;;;;;;4.40;2.00;;;;;;;;;;10484215;28;20673;-69
2022/06/12 04:35:38;;;;;;;4.95;1.98;;;;;;;;;;10456136;28;20705;-70
2022/06/12 04:40:39;;;;;;;1.88;1.77;;;;;;;;;;10479151;28;20190;-69
2022/06/12 04:45:41;;;;;;;5.18;2.60;;;;;;;;;;10472576;28;20263;-69
2022/06/12 04:50:42;;;;;;;2.17;1.98;;;;;;;;;;10484023;28;20209;-70
2022/06/12 04:55:44;;;;;;;2.97;1.92;;;;;;;;;;10447985;28;20197;-70
2022/06/12 05:00:45;;;;;;;2.35;2.00;;;;;;;;;;10456039;28;20310;-69
2022/06/12 05:05:47;;;;;;;2.17;1.92;;;;;;;;;;10485625;28;20183;-69
2022/06/12 05:10:48;;;;;;;1.95;1.95;;;;;;;;;;10461874;28;20701;-68
2022/06/12 05:15:50;;;;;;;4.03;2.03;;;;;;;;;;10470890;28;20193;-70
2022/06/12 05:20:51;;;;;;;2.88;2.00;;;;;;;;;;10481912;28;20190;-69
2022/06/12 05:25:52;;;;;;;2.25;2.10;;;;;;;;;;10483069;28;20187;-68
2022/06/12 05:30:53;;;;;;;4.10;2.00;;;;;;;;;;10485576;28;20742;-69
2022/06/12 05:35:54;;;;;;;3.65;1.98;;;;;;;;;;10477229;28;20173;-69
2022/06/12 05:40:55;;;;;;;5.15;2.00;;;;;;;;;;10452376;28;20186;-68
2022/06/12 05:45:56;;;;;;;5.20;2.22;;;;;;;;;;10465937;28;20856;-69
2022/06/12 05:50:59;;;;;;;4.07;1.80;;;;;;;;;;10469003;28;20230;-68
2022/06/12 05:56:01;;;;;;;1.75;1.65;;;;;;;;;;10476928;28;20232;-69
2022/06/12 06:01:02;;;;;;;4.35;2.17;;;;;;;;;;10478140;28;20216;-69
2022/06/12 06:06:04;;;;;;;2.65;1.90;;;;;;;;;;10474457;28;20653;-69
2022/06/12 06:11:07;;;;;;;2.75;1.75;;;;;;;;;;10457002;28;20199;-68
2022/06/12 06:16:09;;;;;;;2.35;1.92;;;;;;;;;;10459837;28;20185;-69
2022/06/12 06:21:11;;;;;;;3.78;1.40;;;;;;;;;;10477027;28;20304;-68
2022/06/12 06:26:12;;;;;;;2.63;1.60;;;;;;;;;;10483043;28;20224;-68
2022/06/12 06:31:13;;;;;;;4.57;2.40;;;;;;;;;;10493927;28;20222;-69
2022/06/12 06:36:15;;;;;;;2.83;1.90;;;;;;;;;;10501433;28;20186;-64
2022/06/12 06:41:16;;;;;;;4.80;2.50;;;;;;;;;;10496366;28;20614;-67
2022/06/12 06:46:17;;;;;;;3.35;2.13;;;;;;;;;;10484772;28;20301;-67
2022/06/12 06:51:18;;;;;;;2.25;1.80;;;;;;;;;;10498823;28;20290;-67
2022/06/12 06:56:20;;;;;;;3.13;1.98;;;;;;;;;;10484536;28;20206;-69
2022/06/12 07:01:21;;;;;;;4.60;2.40;;;;;;;;;;10489007;28;20292;-68
2022/06/12 07:06:23;;;;;;;2.20;2.10;;;;;;;;;;10478525;28;20186;-68
2022/06/12 07:11:25;;;;;;;7.20;2.40;;;;;;;;;;10451484;28;20206;-66
2022/06/12 07:16:27;;;;;;;3.40;1.90;;;;;;;;;;10463357;28;20569;-69
2022/06/12 07:21:28;;;;;;;9.07;2.13;;;;;;;;;;10496545;28;20182;-67
2022/06/12 07:26:31;;;;;;;2.95;1.70;;;;;;;;;;10494305;28;20206;-68
2022/06/12 07:31:32;;;;;;;5.30;1.48;;;;;;;;;;10464196;28;20218;-67
2022/06/12 07:36:34;;;;;;;5.10;1.77;;;;;;;;;;10482671;28;20217;-67
2022/06/12 07:41:36;;;;;;;4.03;1.55;;;;;;;;;;10485566;28;20198;-68
2022/06/12 07:46:38;;;;;;;4.97;1.58;;;;;;;;;;10490364;28;20636;-68
2022/06/12 07:51:39;;;;;;;3.78;1.42;;;;;;;;;;10485466;28;20210;-66
2022/06/12 07:56:40;;;;;;;5.47;1.38;;;;;;;;;;10467671;28;20197;-68
2022/06/12 08:01:42;;;;;;;10.05;1.73;;;;;;;;;;10487933;28;20248;-68
2022/06/12 08:06:43;;;;;;;5.55;1.58;;;;;;;;;;10455460;28;20182;-68
2022/06/12 08:11:45;;;;;;;9.80;1.77;;;;;;;;;;10476353;28;20204;-68
2022/06/12 08:16:46;;;;;;;4.72;1.60;;;;;;;;;;10478442;28;20181;-68
2022/06/12 08:21:47;;;;;;;8.63;1.70;;;;;;;;;;10487590;28;20193;-68
2022/06/12 08:26:48;;;;;;;4.78;1.92;;;;;;;;;;10457749;28;20946;-67
2022/06/12 08:31:51;;;;;;;6.22;2.13;;;;;;;;;;10478627;28;20221;-68
2022/06/12 08:36:53;;;;;;;6.13;1.55;;;;;;;;;;10482149;28;20275;-68
2022/06/12 08:42:09;;;;;;;4.03;1.60;;;;;;;;;;10473006;28;20189;-68
2022/06/12 08:47:21;;;;;;;3.40;1.60;;;;;;;;;;10476557;28;20623;-68
2022/06/12 08:52:27;;;;;;;8.30;1.90;;;;;;;;;;10489972;28;20205;-69
2022/06/12 08:57:44;;;;;;;7.53;2.03;;;;;;;;;;10487975;28;20195;-68
2022/06/12 09:02:46;;;;;;;19.05;3.28;;;;;;;;;;10488189;28;20210;-68
2022/06/12 09:07:50;;;;;;;13.02;2.13;;;;;;;;;;10485442;28;20198;-67
2022/06/12 09:12:53;;;;;;;4.55;2.25;;;;;;;;;;10462672;28;20202;-68
2022/06/12 09:17:57;;;;;;;5.40;2.08;;;;;;;;;;10473225;28;20182;-67
2022/06/12 09:23:11;;;;;;;6.43;1.67;;;;;;;;;;10472647;28;20197;-68
2022/06/12 09:28:27;;;;;;;5.20;1.60;;;;;;;;;;10487208;28;20201;-67
2022/06/12 09:33:35;;;;;;;11.90;2.42;;;;;;;;;;10467632;28;20208;-67
2022/06/12 09:38:39;;;;;;;5.25;1.45;;;;;;;;;;10467437;28;20857;-67
2022/06/12 09:43:59;;;;;;;5.50;1.80;;;;;;;;;;10500706;28;20184;-67
2022/06/12 09:49:09;;;;;;;5.35;1.75;;;;;;;;;;10431077;28;20226;-68
2022/06/12 09:54:10;;;;;;;7.00;1.60;;;;;;;;;;10450314;28;20184;-68
2022/06/12 09:59:16;;;;;;;4.75;1.30;;;;;;;;;;10447022;28;20210;-66
2022/06/12 10:04:24;;;;;;;5.97;1.33;;;;;;;;;;10450621;28;20300;-68
2022/06/12 10:09:38;;;;;;;8.43;1.55;;;;;;;;;;10452664;28;20206;-68
2022/06/12 10:14:42;;;;;;;9.45;1.30;;;;;;;;;;10456270;28;20183;-66
2022/06/12 10:20:06;;;;;;;6.60;2.35;;;;;;;;;;10462541;28;20268;-67
2022/06/12 10:25:13;;;;;;;4.78;1.58;;;;;;;;;;10452644;28;20618;-68
2022/06/12 10:30:26;;;;;;;5.25;1.52;;;;;;;;;;10444780;28;20661;-68
2022/06/12 10:35:27;;;;;;;5.55;1.55;;;;;;;;;;10449090;28;20223;-66
2022/06/12 10:40:28;;;;;;;4.25;1.40;;;;;;;;;;10425830;28;20187;-68
2022/06/12 10:45:37;;;;;;;5.57;1.50;;;;;;;;;;10444797;28;20218;-67
2022/06/12 10:50:50;;;;;;;4.93;1.70;;;;;;;;;;10481525;28;20296;-68
2022/06/12 10:55:54;;;;;;;3.42;2.17;;;;;;;;;;10481060;28;20190;-67
2022/06/12 11:00:57;;;;;;;4.45;1.40;;;;;;;;;;10444622;28;20738;-67
2022/06/12 11:06:02;;;;;;;3.53;1.02;;;;;;;;;;10460425;28;20647;-62
2022/06/12 11:11:11;;;;;;;3.55;1.40;;;;;;;;;;10469766;28;20206;-66
2022/06/12 11:16:30;;;;;;;3.13;1.23;;;;;;;;;;10482010;28;20182;-65
2022/06/12 11:21:34;;;;;;;4.03;1.33;;;;;;;;;;10486079;28;20653;-66
2022/06/12 11:26:47;;;;;;;2.63;1.40;;;;;;;;;;10490002;28;20206;-67
2022/06/12 11:31:54;;;;;;;3.40;1.23;;;;;;;;;;10455939;28;20222;-67
2022/06/12 11:37:17;;;;;;;4.85;1.67;;;;;;;;;;10489857;28;20204;-68
2022/06/12 11:42:30;;;;;;;2.72;1.30;;;;;;;;;;10486765;28;20241;-67
2022/06/12 11:47:38;;;;;;;1.85;1.02;;;;;;;;;;10486079;28;20300;-67
2022/06/12 11:52:57;;;;;;;2.83;0.90;;;;;;;;;;10479748;28;20685;-67
2022/06/12 11:57:58;;;;;;;2.75;1.35;;;;;;;;;;10485993;28;20299;-67
2022/06/12 12:03:11;;;;;;;4.22;0.95;;;;;;;;;;10485666;28;20595;-66
2022/06/12 12:08:31;;;;;;;5.88;1.55;;;;;;;;;;10504219;28;20205;-67
2022/06/12 12:13:33;;;;;;;2.38;1.10;;;;;;;;;;10484937;28;20228;-66
2022/06/12 12:18:37;;;;;;;2.78;1.05;;;;;;;;;;10485250;28;20182;-67
2022/06/12 12:23:41;;;;;;;1.73;1.08;;;;;;;;;;10503772;28;20177;-67
2022/06/12 12:28:46;;;;;;;3.38;0.98;;;;;;;;;;10463340;28;20217;-67
2022/06/12 12:33:48;;;;;;;3.80;0.90;;;;;;;;;;10504824;28;20305;-67
2022/06/12 12:44:16;;;;;;;2.38;0.82;;;;;;;;;;10503431;28;20717;-66
2022/06/12 12:49:25;;;;;;;3.50;1.20;;;;;;;;;;10502673;28;20315;-66
2022/06/12 12:54:27;;;;;;;2.72;0.88;;;;;;;;;;10486418;28;20531;-66
2022/06/12 12:59:48;;;;;;;1.80;0.73;;;;;;;;;;10505901;28;21134;-66
2022/06/12 13:04:50;;;;;;;3.13;0.90;;;;;;;;;;10501538;28;20765;-66
2022/06/12 13:09:54;;;;;;;3.70;0.85;;;;;;;;;;10466000;28;20214;-66
2022/06/12 13:15:05;;;;;;;3.00;1.20;;;;;;;;;;10499853;28;20188;-66
2022/06/12 13:20:14;;;;;;;2.72;0.90;;;;;;;;;;10501371;28;20468;-67
2022/06/12 13:25:18;;;;;;;6.30;0.98;;;;;;;;;;10504582;28;20712;-66
2022/06/12 13:30:27;;;;;;;1.92;0.80;;;;;;;;;;10491413;28;20202;-67
2022/06/12 13:35:33;;;;;;;4.10;0.90;;;;;;;;;;10482039;28;20228;-67
2022/06/12 13:40:37;;;;;;;1.20;0.77;;;;;;;;;;10505810;28;20197;-67
2022/06/12 13:45:49;;;;;;;3.30;0.82;;;;;;;;;;10503396;28;20336;-67
2022/06/12 13:50:53;;;;;;;1.83;1.13;;;;;;;;;;10495911;28;20240;-66
2022/06/12 13:55:57;;;;;;;1.10;0.75;;;;;;;;;;10481274;28;20198;-67
2022/06/12 14:00:59;;;;;;;1.88;0.80;;;;;;;;;;10473410;28;20215;-67
2022/06/12 14:06:07;;;;;;;3.45;0.85;;;;;;;;;;10450810;28;20634;-67
2022/06/12 14:11:16;;;;;;;1.20;0.85;;;;;;;;;;10495133;28;20228;-67
2022/06/12 14:16:19;;;;;;;0.95;0.70;;;;;;;;;;10499765;28;20238;-67
2022/06/12 14:21:22;;;;;;;3.15;0.90;;;;;;;;;;10486361;28;21099;-66
2022/06/12 14:26:33;;;;;;;2.13;0.82;;;;;;;;;;10498745;28;20255;-67
2022/06/12 14:31:34;;;;;;;1.05;0.73;;;;;;;;;;10494570;28;20641;-66
2022/06/12 14:36:37;;;;;;;1.88;0.80;;;;;;;;;;10463413;28;20565;-66
2022/06/12 14:41:46;;;;;;;1.10;0.60;;;;;;;;;;10499798;28;20206;-67
2022/06/12 14:46:47;;;;;;;2.15;0.88;;;;;;;;;;10474072;28;20237;-68
2022/06/12 14:51:48;;;;;;;2.45;0.90;;;;;;;;;;10498190;28;20255;-68
2022/06/12 14:56:50;;;;;;;1.00;0.80;;;;;;;;;;10503602;28;20194;-66
2022/06/12 15:01:51;;;;;;;1.67;0.90;;;;;;;;;;10506450;28;20681;-66
2022/06/12 15:06:52;;;;;;;4.30;1.30;;;;;;;;;;10507312;28;20419;-66
2022/06/12 15:11:54;;;;;;;1.05;0.77;;;;;;;;;;10502062;28;20216;-64
2022/06/12 15:16:55;;;;;;;2.35;0.90;;;;;;;;;;10467990;28;20637;-67
2022/06/12 15:21:56;;;;;;;1.92;0.60;;;;;;;;;;10494693;28;20174;-68
2022/06/12 15:32:21;;;;;;;4.75;0.88;;;;;;;;;;10502400;28;20229;-68
2022/06/12 15:37:23;;;;;;;3.10;0.90;;;;;;;;;;10501209;28;20317;-67
2022/06/12 15:42:25;;;;;;;3.53;0.90;;;;;;;;;;10500089;28;20651;-67
2022/06/12 15:47:26;;;;;;;1.83;0.80;;;;;;;;;;10501026;28;20213;-65
2022/06/12 15:52:28;;;;;;;0.57;0.55;;;;;;;;;;10500518;28;20206;-68
2022/06/12 15:57:29;;;;;;;1.58;1.05;;;;;;;;;;10496788;28;20221;-69
2022/06/12 16:02:32;;;;;;;52.17;2.78;;;;;;;;;;10479600;28;20206;-66
2022/06/12 16:07:33;;;;;;;5.72;0.93;;;;;;;;;;10482145;28;20564;-66
2022/06/12 16:12:34;;;;;;;3.15;0.93;;;;;;;;;;10504123;28;20588;-65
2022/06/12 16:17:35;;;;;;;3.90;0.90;;;;;;;;;;10502111;28;20178;-66
2022/06/12 16:22:36;;;;;;;2.13;0.70;;;;;;;;;;10495437;28;20186;-66
2022/06/12 16:27:38;;;;;;;10.27;1.00;;;;;;;;;;10457348;28;20736;-65
2022/06/12 16:32:39;;;;;;;3.40;0.93;;;;;;;;;;10503052;28;20238;-66
2022/06/12 16:37:41;;;;;;;2.15;0.90;;;;;;;;;;10499445;28;21200;-67
2022/06/12 16:42:42;;;;;;;2.70;0.70;;;;;;;;;;10483667;28;20188;-66
2022/06/12 16:47:43;;;;;;;2.50;1.20;;;;;;;;;;10502331;28;20697;-65
2022/06/12 16:52:44;;;;;;;1.00;0.70;;;;;;;;;;10496943;28;20325;-65
2022/06/12 16:57:46;;;;;;;3.80;1.00;;;;;;;;;;10498506;28;20647;-67
2022/06/12 17:02:47;;;;;;;5.05;1.00;;;;;;;;;;10502095;28;20739;-66
2022/06/12 17:07:56;;;;;;;1.50;0.70;;;;;;;;;;10502303;28;20660;-67
2022/06/12 17:12:57;;;;;;;1.95;0.70;;;;;;;;;;10473292;28;20635;-66
2022/06/12 17:23:19;;;;;;;2.80;1.00;;;;;;;;;;10494944;28;20185;-67
2022/06/12 17:28:21;;;;;;;1.92;0.50;;;;;;;;;;10482234;28;20197;-67
2022/06/12 17:33:22;;;;;;;4.47;0.70;;;;;;;;;;10495819;28;20229;-67
2022/06/12 17:38:23;;;;;;;2.08;0.85;;;;;;;;;;10477387;28;20661;-67
2022/06/12 17:43:25;;;;;;;3.28;0.57;;;;;;;;;;10474196;28;20190;-68
2022/06/12 17:48:26;;;;;;;1.95;0.77;;;;;;;;;;10478589;28;20740;-67
2022/06/12 17:53:27;;;;;;;1.50;0.60;;;;;;;;;;10478026;28;20613;-67
2022/06/12 17:58:29;;;;;;;1.63;0.70;;;;;;;;;;10497410;28;20277;-67
2022/06/12 18:03:30;;;;;;;1.23;0.50;;;;;;;;;;10484970;28;20232;-67
2022/06/12 18:08:32;;;;;;;0.50;0.30;;;;;;;;;;10480381;28;20203;-66
2022/06/12 18:13:33;;;;;;;1.77;0.50;;;;;;;;;;10448801;28;20632;-67
2022/06/12 18:23:55;;;;;;;0.70;0.55;;;;;;;;;;10490536;28;20266;-67
2022/06/12 18:28:56;;;;;;;1.42;0.32;;;;;;;;;;10485308;28;20690;-67
2022/06/12 18:33:57;;;;;;;1.13;0.60;;;;;;;;;;10479337;28;20202;-66
2022/06/12 18:38:59;;;;;;;2.50;0.38;;;;;;;;;;10485855;28;20807;-67
2022/06/12 18:44:00;;;;;;;0.35;0.30;;;;;;;;;;10478441;28;20716;-66
2022/06/12 18:49:01;;;;;;;1.23;0.30;;;;;;;;;;10429515;28;20214;-68
2022/06/12 18:54:03;;;;;;;1.13;0.60;;;;;;;;;;10442751;28;20175;-67
2022/06/12 18:59:04;;;;;;;1.38;0.40;;;;;;;;;;10439648;28;20206;-65
2022/06/12 19:04:05;;;;;;;1.50;0.50;;;;;;;;;;10436379;28;20441;-66
2022/06/12 19:09:06;;;;;;;0.95;0.40;;;;;;;;;;10435999;28;20203;-67
2022/06/12 19:14:09;;;;;;;1.05;0.40;;;;;;;;;;10430475;28;20217;-67
2022/06/12 19:19:11;;;;;;;2.95;0.40;;;;;;;;;;10424893;28;20178;-69
2022/06/12 19:24:13;;;;;;;1.77;0.45;;;;;;;;;;10442109;28;20191;-68
2022/06/12 19:29:14;;;;;;;0.50;0.50;;;;;;;;;;10456467;28;20252;-67
2022/06/12 19:34:16;;;;;;;1.88;0.40;;;;;;;;;;10437801;28;20215;-67
2022/06/12 19:39:18;;;;;;;0.63;0.40;;;;;;;;;;10453437;28;20643;-67
2022/06/12 19:44:21;;;;;;;0.88;0.40;;;;;;;;;;10442095;28;20210;-69
2022/06/12 19:49:22;;;;;;;1.30;0.40;;;;;;;;;;10488926;28;21015;-67
2022/06/12 19:54:24;;;;;;;1.48;0.40;;;;;;;;;;10487941;28;20187;-68
2022/06/12 19:59:25;;;;;;;1.35;0.60;;;;;;;;;;10462471;28;20232;-68
2022/06/12 20:09:46;;;;;;;0.70;0.35;;;;;;;;;;10489764;28;20296;-69
2022/06/12 20:14:47;;;;;;;1.00;0.60;;;;;;;;;;10497827;28;20186;-69
2022/06/12 20:19:48;;;;;;;2.42;0.60;;;;;;;;;;10503035;28;20192;-69
2022/06/12 20:24:50;;;;;;;3.83;0.90;;;;;;;;;;10505267;28;20627;-69
2022/06/12 20:29:51;;;;;;;0.93;0.40;;;;;;;;;;10510891;28;20225;-69
2022/06/12 20:34:52;;;;;;;1.15;0.47;;;;;;;;;;10502419;28;20218;-69
2022/06/12 20:39:53;;;;;;;1.30;0.40;;;;;;;;;;10483872;28;20193;-69
2022/06/12 20:44:54;;;;;;;1.40;0.40;;;;;;;;;;10455252;28;20557;-69
2022/06/12 20:49:55;;;;;;;1.25;0.40;;;;;;;;;;10486122;28;20301;-69
2022/06/12 20:54:56;;;;;;;6.05;0.40;;;;;;;;;;10515134;28;20178;-68
2022/06/12 20:59:57;;;;;;;2.70;0.52;;;;;;;;;;10508556;28;21346;-69
2022/06/12 21:04:59;;;;;;;1.90;0.70;;;;;;;;;;10480614;28;20362;-69
2022/06/12 21:10:00;;;;;;;3.60;0.55;;;;;;;;;;10477227;28;20876;-69
2022/06/12 21:15:01;;;;;;;5.07;0.73;;;;;;;;;;10475692;28;20231;-69
2022/06/12 21:20:02;;;;;;;1.45;0.73;;;;;;;;;;10452809;28;20216;-68
2022/06/12 21:25:04;;;;;;;2.42;0.90;;;;;;;;;;10490700;28;20869;-69
2022/06/12 21:30:05;;;;;;;3.67;1.27;;;;;;;;;;10512203;28;20205;-69
2022/06/12 21:35:07;;;;;;;4.80;1.20;;;;;;;;;;10504097;28;20212;-69
2022/06/12 21:40:10;;;;;;;3.20;1.20;;;;;;;;;;10482154;28;20200;-69
2022/06/12 21:45:12;;;;;;;3.33;0.90;;;;;;;;;;10479342;28;20629;-67
2022/06/12 21:50:13;;;;;;;3.60;0.95;;;;;;;;;;10389884;28;20220;-68
2022/06/12 21:55:14;;;;;;;3.83;1.35;;;;;;;;;;10351040;28;20195;-68
2022/06/12 22:00:18;;;;;;;2.33;1.17;;;;;;;;;;10412809;28;20198;-69
2022/06/12 22:05:20;;;;;;;3.13;1.30;;;;;;;;;;10423008;28;20188;-69
2022/06/12 22:10:21;;;;;;;3.33;1.55;;;;;;;;;;10410736;28;20273;-69
2022/06/12 22:15:22;;;;;;;4.18;1.40;;;;;;;;;;10419785;28;20294;-68
2022/06/12 22:20:24;;;;;;;3.25;1.23;;;;;;;;;;10400565;28;20190;-68
2022/06/12 22:25:25;;;;;;;4.55;1.48;;;;;;;;;;10416196;28;20369;-68
2022/06/12 22:30:28;;;;;;;4.85;1.42;;;;;;;;;;10416860;28;20649;-69
2022/06/12 22:35:29;;;;;;;4.93;1.30;;;;;;;;;;10380763;28;20682;-68
2022/06/12 22:40:31;;;;;;;4.35;1.27;;;;;;;;;;10421246;28;20183;-68
2022/06/12 22:45:33;;;;;;;2.92;1.30;;;;;;;;;;10407153;28;20230;-68
2022/06/12 22:50:34;;;;;;;5.97;1.48;;;;;;;;;;10461177;28;20238;-69
2022/06/12 22:55:35;;;;;;;2.88;1.50;;;;;;;;;;10459535;28;20182;-69
2022/06/12 23:00:36;;;;;;;3.03;1.52;;;;;;;;;;10459180;28;20218;-69
2022/06/12 23:05:38;;;;;;;3.75;1.30;;;;;;;;;;10459433;28;20183;-69
2022/06/12 23:10:40;;;;;;;2.20;1.08;;;;;;;;;;10462365;28;20266;-69
2022/06/12 23:15:41;;;;;;;5.10;1.30;;;;;;;;;;10464517;28;20725;-69
2022/06/12 23:20:42;;;;;;;8.45;1.85;;;;;;;;;;10464619;28;20662;-68
2022/06/12 23:25:43;;;;;;;4.97;1.42;;;;;;;;;;10466765;28;20634;-68
2022/06/12 23:30:45;;;;;;;3.53;1.20;;;;;;;;;;10463456;28;20229;-69
2022/06/12 23:35:48;;;;;;;3.88;1.48;;;;;;;;;;10466152;28;20601;-69
2022/06/12 23:40:49;;;;;;;4.47;1.15;;;;;;;;;;10466981;28;20688;-69
2022/06/12 23:45:50;;;;;;;2.55;1.40;;;;;;;;;;10463709;28;20233;-69
2022/06/12 23:50:52;;;;;;;6.10;1.40;;;;;;;;;;10458456;28;20380;-69
2022/06/12 23:55:53;;;;;;;2.88;1.10;;;;;;;;;;10468182;28;20178;-69
